createdAt,value
2023-05-18T00:01:32.360Z,29.50
2023-05-18T00:04:01.012Z,25.50
2023-05-18T00:06:29.530Z,30.50
2023-05-18T00:08:57.975Z,30.25
2023-05-18T00:11:27.126Z,24.25
2023-05-18T00:13:55.576Z,28.00
2023-05-18T00:16:24.305Z,29.25
2023-05-18T00:18:55.708Z,28.00
2023-05-18T00:21:24.400Z,27.75
2023-05-18T00:23:53.346Z,24.00
2023-05-18T00:26:22.108Z,25.75
2023-05-18T00:28:50.542Z,27.75
2023-05-18T00:31:19.047Z,29.00
2023-05-18T00:33:47.517Z,27.75
2023-05-18T00:36:15.975Z,26.25
2023-05-18T00:38:44.381Z,22.25
2023-05-18T00:41:13.139Z,24.50
2023-05-18T00:43:44.633Z,23.00
2023-05-18T00:46:13.615Z,23.50
2023-05-18T00:48:42.078Z,24.25
2023-05-18T00:51:11.083Z,22.00
2023-05-18T00:53:41.099Z,25.00
2023-05-18T00:56:12.258Z,24.50
2023-05-18T00:58:42.357Z,22.50
2023-05-18T01:01:11.267Z,20.25
2023-05-18T01:03:40.399Z,21.25
2023-05-18T01:06:11.377Z,21.25
2023-05-18T01:08:40.680Z,22.00
2023-05-18T01:11:12.086Z,24.00
2023-05-18T01:13:56.489Z,24.50
2023-05-18T01:16:35.226Z,23.00
2023-05-18T01:19:19.071Z,20.00
2023-05-18T01:22:07.246Z,19.50
2023-05-18T01:24:44.546Z,20.25
2023-05-18T01:27:18.595Z,19.50
2023-05-18T01:29:49.825Z,19.00
2023-05-18T01:32:22.447Z,20.50
2023-05-18T01:34:51.173Z,20.00
2023-05-18T01:37:19.602Z,19.25
2023-05-18T01:39:48.188Z,20.75
2023-05-18T01:42:25.739Z,20.50
2023-05-18T01:44:59.614Z,20.25
2023-05-18T01:47:32.402Z,23.75
2023-05-18T01:50:03.563Z,22.25
2023-05-18T01:52:49.969Z,21.00
2023-05-18T01:55:20.100Z,21.50
2023-05-18T01:57:51.024Z,22.75
2023-05-18T02:00:20.714Z,21.25
2023-05-18T02:02:49.809Z,21.00
2023-05-18T02:05:18.388Z,18.25
2023-05-18T02:07:48.358Z,20.50
2023-05-18T02:10:17.073Z,21.25
2023-05-18T02:12:45.517Z,19.25
2023-05-18T02:15:14.051Z,19.00
2023-05-18T02:17:42.694Z,19.25
2023-05-18T02:20:12.124Z,17.25
2023-05-18T02:22:40.861Z,18.75
2023-05-18T02:25:09.637Z,19.00
2023-05-18T02:27:38.129Z,19.25
2023-05-18T02:30:09.421Z,17.50
2023-05-18T02:32:40.519Z,22.75
2023-05-18T02:35:09.941Z,20.25
2023-05-18T02:37:43.246Z,19.25
2023-05-18T02:40:13.467Z,19.50
2023-05-18T02:42:42.129Z,19.00
2023-05-18T02:45:10.945Z,20.00
2023-05-18T02:47:39.535Z,20.25
2023-05-18T02:50:08.607Z,20.50
2023-05-18T02:52:37.266Z,18.25
2023-05-18T02:55:06.886Z,21.00
2023-05-18T02:57:35.411Z,19.25
2023-05-18T03:00:04.029Z,18.50
2023-05-18T03:02:32.526Z,21.75
2023-05-18T03:05:00.999Z,19.00
2023-05-18T03:07:29.551Z,20.25
2023-05-18T03:09:57.953Z,19.50
2023-05-18T03:12:26.391Z,20.50
2023-05-18T03:14:54.762Z,19.25
2023-05-18T03:17:23.542Z,22.50
2023-05-18T03:19:52.389Z,17.75
2023-05-18T03:22:20.821Z,19.50
2023-05-18T03:24:52.133Z,17.75
2023-05-18T03:27:24.137Z,19.50
2023-05-18T03:29:55.665Z,21.75
2023-05-18T03:32:25.683Z,20.75
2023-05-18T03:34:54.319Z,22.25
2023-05-18T03:37:22.894Z,21.00
2023-05-18T03:39:51.400Z,20.25
2023-05-18T03:42:19.800Z,19.75
2023-05-18T03:44:48.217Z,17.75
2023-05-18T03:47:16.575Z,18.00
2023-05-18T03:49:44.982Z,18.25
2023-05-18T03:52:16.272Z,18.00
2023-05-18T03:54:45.157Z,19.50
2023-05-18T03:57:13.539Z,18.75
2023-05-18T03:59:42.071Z,18.75
2023-05-18T04:02:11.152Z,20.00
2023-05-18T04:04:42.945Z,19.25
2023-05-18T04:07:11.801Z,16.75
2023-05-18T04:09:41.644Z,18.75
2023-05-18T04:12:10.903Z,19.00
2023-05-18T04:14:39.769Z,20.00
2023-05-18T04:17:08.325Z,20.75
2023-05-18T04:19:38.074Z,21.25
2023-05-18T04:22:09.003Z,18.75
2023-05-18T04:24:38.209Z,18.00
2023-05-18T04:27:06.677Z,22.50
2023-05-18T04:29:35.103Z,17.25
2023-05-18T04:32:03.576Z,20.25
2023-05-18T04:34:38.325Z,17.75
2023-05-18T04:37:07.071Z,18.75
2023-05-18T04:39:36.160Z,20.75
2023-05-18T04:42:05.557Z,15.00
2023-05-18T04:44:37.552Z,20.00
2023-05-18T04:47:06.128Z,18.25
2023-05-18T04:49:35.111Z,18.00
2023-05-18T04:52:03.575Z,18.50
2023-05-18T04:54:32.833Z,18.50
2023-05-18T04:57:03.099Z,16.00
2023-05-18T04:59:31.511Z,19.75
2023-05-18T05:01:59.941Z,17.00
2023-05-18T05:04:28.389Z,20.50
2023-05-18T05:06:56.967Z,19.00
2023-05-18T05:09:25.408Z,19.00
2023-05-18T05:11:53.832Z,19.75
2023-05-18T05:14:22.264Z,17.50
2023-05-18T05:16:50.627Z,17.50
2023-05-18T05:19:19.115Z,18.50
2023-05-18T05:21:48.208Z,19.50
2023-05-18T05:24:16.733Z,18.00
2023-05-18T05:26:45.115Z,17.25
2023-05-18T05:29:13.829Z,16.50
2023-05-18T05:31:42.388Z,18.75
2023-05-18T05:34:12.901Z,19.75
2023-05-18T05:36:41.499Z,19.00
2023-05-18T05:39:09.890Z,19.00
2023-05-18T05:41:40.255Z,19.25
2023-05-18T05:44:08.633Z,18.50
2023-05-18T05:46:37.060Z,21.75
2023-05-18T05:49:06.204Z,16.75
2023-05-18T05:51:34.667Z,17.00
2023-05-18T05:54:03.241Z,15.25
2023-05-18T05:56:31.757Z,20.25
2023-05-18T05:59:00.257Z,17.75
2023-05-18T06:01:30.037Z,17.00
2023-05-18T06:03:58.547Z,18.25
2023-05-18T06:06:27.057Z,18.00
2023-05-18T06:08:55.478Z,16.75
2023-05-18T06:11:24.679Z,17.75
2023-05-18T06:13:53.359Z,21.50
2023-05-18T06:16:21.964Z,20.75
2023-05-18T06:18:50.459Z,16.75
2023-05-18T06:21:18.921Z,18.25
2023-05-18T06:23:47.757Z,16.50
2023-05-18T06:26:16.141Z,17.75
2023-05-18T06:28:45.151Z,18.75
2023-05-18T06:31:13.854Z,16.50
2023-05-18T06:33:42.345Z,18.25
2023-05-18T06:36:10.978Z,17.75
2023-05-18T06:38:39.977Z,18.00
2023-05-18T06:41:08.405Z,16.75
2023-05-18T06:43:36.954Z,18.25
2023-05-18T06:46:05.435Z,16.00
2023-05-18T06:48:33.964Z,17.75
2023-05-18T06:51:02.333Z,16.50
2023-05-18T06:53:32.640Z,17.50
2023-05-18T06:56:01.334Z,16.00
2023-05-18T06:58:29.726Z,17.75
2023-05-18T07:00:58.928Z,14.50
2023-05-18T07:03:27.592Z,17.50
2023-05-18T07:05:55.968Z,17.75
2023-05-18T07:08:25.821Z,19.00
2023-05-18T07:10:54.285Z,18.25
2023-05-18T07:13:22.656Z,18.00
2023-05-18T07:15:51.172Z,17.50
2023-05-18T07:18:19.896Z,17.25
2023-05-18T07:20:48.466Z,17.25
2023-05-18T07:23:16.954Z,16.75
2023-05-18T07:25:45.448Z,16.25
2023-05-18T07:28:13.959Z,15.50
2023-05-18T07:30:42.662Z,16.00
2023-05-18T07:33:11.175Z,19.00
2023-05-18T07:35:39.638Z,16.75
2023-05-18T07:38:08.054Z,17.75
2023-05-18T07:40:36.510Z,18.00
2023-05-18T07:43:04.934Z,18.25
2023-05-18T07:45:34.108Z,18.00
2023-05-18T07:48:02.914Z,16.50
2023-05-18T07:50:31.468Z,19.50
2023-05-18T07:52:59.927Z,17.00
2023-05-18T07:55:28.460Z,17.50
2023-05-18T07:57:57.506Z,16.50
2023-05-18T08:00:26.094Z,18.75
2023-05-18T08:02:55.075Z,15.75
2023-05-18T08:05:24.227Z,19.75
2023-05-18T08:07:52.913Z,18.50
2023-05-18T08:10:21.398Z,19.25
2023-05-18T08:12:49.767Z,16.25
2023-05-18T08:15:18.152Z,19.75
2023-05-18T08:17:46.880Z,19.50
2023-05-18T08:20:15.494Z,17.75
2023-05-18T08:22:43.857Z,19.00
2023-05-18T08:25:12.498Z,17.00
2023-05-18T08:27:40.958Z,18.00
2023-05-18T08:30:10.137Z,17.50
2023-05-18T08:32:38.602Z,19.25
2023-05-18T08:35:09.281Z,17.25
2023-05-18T08:37:38.367Z,16.25
2023-05-18T08:40:11.578Z,16.25
2023-05-18T08:42:58.792Z,17.00
2023-05-18T08:45:30.584Z,18.75
2023-05-18T08:48:02.972Z,16.00
2023-05-18T08:50:34.110Z,18.75
2023-05-18T08:53:07.117Z,20.25
2023-05-18T08:55:37.955Z,18.00
2023-05-18T08:58:10.458Z,17.00
2023-05-18T09:00:39.240Z,16.75
2023-05-18T09:03:07.929Z,18.00
2023-05-18T09:05:37.384Z,18.00
2023-05-18T09:08:08.043Z,16.00
2023-05-18T09:10:37.725Z,16.00
2023-05-18T09:13:07.246Z,16.75
2023-05-18T09:15:38.416Z,17.50
2023-05-18T09:18:06.810Z,17.25
2023-05-18T09:20:35.349Z,17.00
2023-05-18T09:23:06.850Z,17.50
2023-05-18T09:25:38.008Z,17.00
2023-05-18T09:28:06.402Z,17.75
2023-05-18T09:30:42.349Z,20.50
2023-05-18T09:33:24.550Z,18.75
2023-05-18T09:35:53.718Z,19.00
2023-05-18T09:38:26.047Z,17.75
2023-05-18T09:40:54.777Z,16.25
2023-05-18T09:43:23.304Z,19.75
2023-05-18T09:45:51.861Z,16.00
2023-05-18T09:48:21.611Z,17.25
2023-05-18T09:50:51.438Z,16.75
2023-05-18T09:53:19.961Z,15.75
2023-05-18T09:55:50.088Z,17.50
2023-05-18T09:58:19.269Z,17.00
2023-05-18T10:00:57.786Z,22.00
2023-05-18T10:03:26.798Z,21.00
2023-05-18T10:05:55.246Z,17.00
2023-05-18T10:08:23.737Z,17.00
2023-05-18T10:10:52.487Z,16.25
2023-05-18T10:13:21.854Z,17.50
2023-05-18T10:15:55.143Z,17.50
2023-05-18T10:18:37.361Z,17.25
2023-05-18T10:21:10.325Z,19.00
2023-05-18T10:23:41.582Z,15.25
2023-05-18T10:26:11.118Z,18.50
2023-05-18T10:28:51.699Z,17.75
2023-05-18T10:31:22.628Z,21.00
2023-05-18T10:33:53.580Z,16.75
2023-05-18T10:36:26.828Z,18.50
2023-05-18T10:38:56.125Z,21.25
2023-05-18T10:41:26.168Z,18.25
2023-05-18T10:43:57.251Z,17.00
2023-05-18T10:46:27.719Z,19.50
2023-05-18T10:48:58.758Z,17.00
2023-05-18T10:51:30.476Z,17.00
2023-05-18T10:54:12.614Z,19.50
2023-05-18T10:56:49.137Z,19.00
2023-05-18T10:59:19.494Z,20.00
2023-05-18T11:01:51.097Z,17.25
2023-05-18T11:04:29.060Z,18.25
2023-05-18T11:07:02.357Z,18.50
2023-05-18T11:09:31.623Z,19.00
2023-05-18T11:12:01.302Z,21.00
2023-05-18T11:14:32.092Z,19.50
2023-05-18T11:17:30.139Z,20.25
2023-05-18T11:20:10.305Z,18.50
2023-05-18T11:22:54.414Z,18.25
2023-05-18T11:25:28.807Z,21.25
2023-05-18T11:28:03.150Z,18.00
2023-05-18T11:30:35.544Z,18.50
2023-05-18T11:33:28.679Z,17.75
2023-05-18T11:36:09.293Z,18.75
2023-05-18T11:38:55.995Z,17.50
2023-05-18T11:41:42.686Z,17.75
2023-05-18T11:44:16.067Z,20.50
2023-05-18T11:46:55.859Z,17.25
2023-05-18T11:49:27.434Z,17.75
2023-05-18T11:52:14.611Z,17.00
2023-05-18T11:54:48.033Z,17.75
2023-05-18T11:57:18.861Z,19.25
2023-05-18T11:59:49.495Z,18.75
2023-05-18T12:02:25.313Z,21.25
2023-05-18T12:05:01.061Z,18.25
2023-05-18T12:07:33.286Z,21.75
2023-05-18T12:10:09.617Z,24.25
2023-05-18T12:12:38.429Z,19.00
2023-05-18T12:15:09.496Z,23.75
2023-05-18T12:17:51.831Z,22.75
2023-05-18T12:20:22.417Z,23.50
2023-05-18T12:22:54.143Z,24.75
2023-05-18T12:25:26.633Z,26.00
2023-05-18T12:27:56.303Z,23.50
2023-05-18T12:30:27.986Z,25.75
2023-05-18T12:32:58.514Z,27.50
2023-05-18T12:35:28.089Z,25.50
2023-05-18T12:37:59.067Z,22.25
2023-05-18T12:40:28.380Z,26.00
2023-05-18T12:43:00.515Z,26.25
2023-05-18T12:45:33.043Z,22.75
2023-05-18T12:48:09.694Z,25.75
2023-05-18T12:50:46.967Z,29.00
2023-05-18T12:53:15.571Z,28.50
2023-05-18T12:55:43.946Z,23.50
2023-05-18T12:58:19.913Z,29.75
2023-05-18T13:00:49.825Z,26.75
2023-05-18T13:03:21.179Z,26.50
2023-05-18T13:06:05.844Z,29.25
2023-05-18T13:08:35.911Z,24.75
2023-05-18T13:11:13.594Z,25.25
2023-05-18T13:14:03.367Z,28.25
2023-05-18T13:16:32.902Z,27.25
2023-05-18T13:19:06.204Z,32.50
2023-05-18T13:21:35.804Z,27.75
2023-05-18T13:24:05.905Z,27.75
2023-05-18T13:26:34.464Z,28.50
2023-05-18T13:29:02.846Z,30.50
2023-05-18T13:31:31.331Z,30.25
2023-05-18T13:33:59.739Z,28.00
2023-05-18T13:36:30.530Z,27.50
2023-05-18T13:38:58.993Z,30.75
2023-05-18T13:41:27.452Z,30.75
2023-05-18T13:43:55.860Z,31.25
2023-05-18T13:46:24.312Z,33.50
2023-05-18T13:48:52.730Z,30.25
2023-05-18T13:51:21.101Z,32.00
2023-05-18T13:53:49.485Z,30.25
2023-05-18T13:56:17.921Z,27.00
2023-05-18T13:58:47.029Z,27.00
2023-05-18T14:01:15.549Z,25.75
2023-05-18T14:03:43.949Z,29.50
2023-05-18T14:06:12.458Z,29.75
2023-05-18T14:08:40.877Z,28.75
2023-05-18T14:11:09.229Z,26.75
2023-05-18T14:13:37.591Z,26.75
2023-05-18T14:16:06.426Z,24.50
2023-05-18T14:18:34.788Z,26.50
2023-05-18T14:21:04.508Z,29.50
2023-05-18T14:23:32.914Z,26.00
2023-05-18T14:26:01.503Z,27.00
2023-05-18T14:28:31.126Z,27.00
2023-05-18T14:31:00.298Z,27.25
2023-05-18T14:33:28.684Z,27.00
2023-05-18T14:35:58.716Z,30.75
2023-05-18T14:38:28.050Z,27.50
2023-05-18T14:40:56.420Z,28.00
2023-05-18T14:43:24.774Z,27.25
2023-05-18T14:46:04.261Z,24.00
2023-05-18T14:48:35.856Z,25.75
2023-05-18T14:51:04.459Z,25.25
2023-05-18T14:53:32.812Z,25.25
2023-05-18T14:56:05.094Z,25.75
2023-05-18T14:58:33.803Z,25.25
2023-05-18T15:01:02.394Z,26.00
2023-05-18T15:03:32.014Z,24.75
2023-05-18T15:06:00.624Z,28.25
2023-05-18T15:08:29.040Z,25.25
2023-05-18T15:10:57.563Z,24.00
2023-05-18T15:13:26.056Z,23.00
2023-05-18T15:15:54.908Z,25.00
2023-05-18T15:18:23.978Z,27.50
2023-05-18T15:20:52.450Z,23.75
2023-05-18T15:23:20.884Z,25.25
2023-05-18T15:25:49.359Z,21.25
2023-05-18T15:28:17.830Z,24.25
2023-05-18T15:30:46.948Z,25.50
2023-05-18T15:33:15.424Z,23.75
2023-05-18T15:35:43.996Z,24.50
2023-05-18T15:38:12.391Z,26.25
2023-05-18T15:40:41.101Z,25.25
2023-05-18T15:43:09.470Z,25.25
2023-05-18T15:45:37.969Z,24.00
2023-05-18T15:48:06.543Z,27.50
2023-05-18T15:50:35.018Z,25.25
2023-05-18T15:53:03.380Z,28.00
2023-05-18T15:55:32.114Z,26.00
2023-05-18T15:58:00.539Z,26.50
2023-05-18T16:00:29.138Z,26.00
2023-05-18T16:02:57.786Z,27.25
2023-05-18T16:05:26.185Z,23.00
2023-05-18T16:07:54.630Z,22.00
2023-05-18T16:10:23.451Z,25.75
2023-05-18T16:12:51.930Z,25.25
2023-05-18T16:15:25.104Z,25.75
2023-05-18T16:17:53.601Z,28.25
2023-05-18T16:20:22.377Z,26.00
2023-05-18T16:22:52.277Z,24.25
2023-05-18T16:25:20.755Z,28.50
2023-05-18T16:27:49.246Z,27.75
2023-05-18T16:30:17.745Z,32.25
2023-05-18T16:32:46.341Z,28.50
2023-05-18T16:35:14.805Z,26.50
2023-05-18T16:37:43.260Z,27.50
2023-05-18T16:40:12.051Z,27.50
2023-05-18T16:42:40.540Z,25.00
2023-05-18T16:45:09.229Z,29.50
2023-05-18T16:47:37.692Z,29.00
2023-05-18T16:50:06.867Z,27.75
2023-05-18T16:52:35.483Z,26.75
2023-05-18T16:55:03.882Z,29.75
2023-05-18T16:57:34.759Z,22.75
2023-05-18T17:00:03.315Z,24.75
2023-05-18T17:02:31.997Z,23.75
2023-05-18T17:05:00.798Z,28.25
2023-05-18T17:07:29.264Z,28.75
2023-05-18T17:09:57.749Z,26.25
2023-05-18T17:12:26.234Z,27.25
2023-05-18T17:14:55.107Z,26.25
2023-05-18T17:17:23.851Z,27.50
2023-05-18T17:19:52.394Z,23.75
2023-05-18T17:22:20.847Z,25.50
2023-05-18T17:24:49.268Z,27.75
2023-05-18T17:27:17.942Z,27.00
2023-05-18T17:29:46.502Z,30.75
2023-05-18T17:32:14.952Z,27.75
2023-05-18T17:34:43.366Z,27.75
2023-05-18T17:37:12.104Z,27.00
2023-05-18T17:39:40.934Z,29.00
2023-05-18T17:42:09.411Z,28.25
2023-05-18T17:44:37.873Z,28.50
2023-05-18T17:47:06.656Z,29.00
2023-05-18T17:49:35.430Z,24.00
2023-05-18T17:52:04.580Z,24.50
2023-05-18T17:54:33.005Z,29.25
2023-05-18T17:57:01.460Z,28.25
2023-05-18T17:59:29.850Z,27.00
2023-05-18T18:01:58.211Z,25.00
2023-05-18T18:04:26.595Z,30.25
2023-05-18T18:06:55.499Z,25.75
2023-05-18T18:09:23.876Z,27.25
2023-05-18T18:11:52.364Z,26.75
2023-05-18T18:14:20.968Z,30.50
2023-05-18T18:16:49.718Z,26.25
2023-05-18T18:19:18.261Z,28.00
2023-05-18T18:21:46.696Z,28.50
2023-05-18T18:24:15.506Z,29.50
2023-05-18T18:26:43.956Z,28.75
2023-05-18T18:29:12.357Z,29.25
2023-05-18T18:31:40.937Z,30.25
2023-05-18T18:34:12.067Z,31.75
2023-05-18T18:36:41.928Z,28.75
2023-05-18T18:39:10.736Z,30.25
2023-05-18T18:41:39.261Z,31.50
2023-05-18T18:44:07.668Z,28.75
2023-05-18T18:46:36.124Z,27.00
2023-05-18T18:49:04.520Z,31.00
2023-05-18T18:51:33.414Z,29.00
2023-05-18T18:54:01.985Z,29.00
2023-05-18T18:56:30.500Z,29.50
2023-05-18T18:58:59.002Z,29.50
2023-05-18T19:01:27.448Z,29.50
2023-05-18T19:03:56.652Z,31.75
2023-05-18T19:06:26.054Z,28.25
2023-05-18T19:08:54.449Z,30.00
2023-05-18T19:11:24.325Z,28.00
2023-05-18T19:13:52.698Z,25.00
2023-05-18T19:16:22.516Z,25.25
2023-05-18T19:18:51.076Z,28.50
2023-05-18T19:21:19.636Z,26.25
2023-05-18T19:23:48.545Z,28.00
2023-05-18T19:26:17.142Z,26.75
2023-05-18T19:28:45.494Z,25.50
2023-05-18T19:31:13.880Z,29.75
2023-05-18T19:33:42.248Z,26.50
2023-05-18T19:36:12.183Z,27.50
2023-05-18T19:38:40.672Z,26.75
2023-05-18T19:41:09.129Z,28.00
2023-05-18T19:43:37.481Z,25.50
2023-05-18T19:46:06.994Z,25.75
2023-05-18T19:48:35.585Z,26.50
2023-05-18T19:51:05.098Z,23.25
2023-05-18T19:53:33.480Z,23.75
2023-05-18T19:56:02.028Z,28.00
2023-05-18T19:58:30.396Z,29.00
2023-05-18T20:00:58.792Z,25.75
2023-05-18T20:03:28.457Z,25.25
2023-05-18T20:05:57.570Z,24.25
2023-05-18T20:08:26.985Z,23.50
2023-05-18T20:10:56.403Z,27.50
2023-05-18T20:13:24.849Z,27.25
2023-05-18T20:15:53.515Z,25.25
2023-05-18T20:18:22.716Z,25.25
2023-05-18T20:20:51.895Z,24.25
2023-05-18T20:23:20.359Z,26.75
2023-05-18T20:25:49.357Z,27.75
2023-05-18T20:28:17.767Z,25.25
2023-05-18T20:30:46.292Z,22.75
2023-05-18T20:33:16.544Z,30.25
2023-05-18T20:35:46.247Z,28.50
2023-05-18T20:38:15.130Z,27.50
2023-05-18T20:40:45.099Z,27.00
2023-05-18T20:43:18.748Z,25.75
2023-05-18T20:45:48.190Z,26.00
2023-05-18T20:48:25.907Z,36.75
2023-05-18T20:50:54.507Z,45.50
2023-05-18T20:53:23.398Z,48.25
2023-05-18T20:55:52.062Z,40.50
2023-05-18T20:58:20.915Z,40.00
2023-05-18T21:00:50.608Z,35.25
2023-05-18T21:03:19.385Z,37.50
2023-05-18T21:05:50.396Z,38.00
2023-05-18T21:08:18.970Z,32.25
2023-05-18T21:10:47.395Z,31.00
2023-05-18T21:13:16.018Z,34.25
2023-05-18T21:15:44.497Z,30.25
2023-05-18T21:18:13.586Z,30.50
2023-05-18T21:20:42.094Z,28.75
2023-05-18T21:23:10.516Z,26.75
2023-05-18T21:25:38.958Z,25.25
2023-05-18T21:28:07.516Z,24.25
2023-05-18T21:30:35.955Z,26.00
2023-05-18T21:33:04.426Z,23.00
2023-05-18T21:35:32.963Z,26.00
2023-05-18T21:38:01.651Z,27.00
2023-05-18T21:40:30.205Z,27.00
2023-05-18T21:42:58.708Z,28.75
2023-05-18T21:45:27.400Z,26.25
2023-05-18T21:47:55.935Z,30.00
2023-05-18T21:50:24.437Z,28.75
2023-05-18T21:52:53.071Z,28.00
2023-05-18T21:55:21.485Z,29.75
2023-05-18T21:57:49.908Z,27.75
2023-05-18T22:00:19.273Z,30.25
2023-05-18T22:02:47.655Z,29.75
2023-05-18T22:05:16.166Z,29.25
2023-05-18T22:07:44.551Z,29.75
2023-05-18T22:10:13.474Z,26.25
2023-05-18T22:12:44.258Z,31.25
2023-05-18T22:15:13.049Z,29.00
2023-05-18T22:17:41.582Z,29.25
2023-05-18T22:20:10.665Z,25.00
2023-05-18T22:22:40.930Z,29.50
2023-05-18T22:25:09.704Z,29.50
2023-05-18T22:27:39.484Z,28.00
2023-05-18T22:30:09.527Z,27.25
2023-05-18T22:32:38.086Z,26.50
2023-05-18T22:35:07.226Z,27.75
2023-05-18T22:37:35.575Z,27.00
2023-05-18T22:40:07.026Z,27.25
2023-05-18T22:42:35.482Z,27.25
2023-05-18T22:45:05.347Z,22.25
2023-05-18T22:47:34.709Z,27.50
2023-05-18T22:50:03.082Z,25.75
2023-05-18T22:52:31.748Z,27.50
2023-05-18T22:55:00.251Z,27.25
2023-05-18T22:57:29.031Z,27.25
2023-05-18T22:59:57.388Z,29.50
2023-05-18T23:02:25.812Z,28.00
2023-05-18T23:04:54.222Z,26.50
2023-05-18T23:07:26.118Z,24.00
2023-05-18T23:09:55.093Z,26.50
2023-05-18T23:12:26.414Z,27.00
2023-05-18T23:14:56.707Z,28.50
2023-05-18T23:17:25.219Z,27.75
2023-05-18T23:19:54.772Z,29.25
2023-05-18T23:22:23.293Z,30.25
2023-05-18T23:24:51.795Z,30.75
2023-05-18T23:27:21.332Z,28.50
2023-05-18T23:29:49.720Z,29.00
2023-05-18T23:32:18.085Z,29.75
2023-05-18T23:34:46.782Z,30.25
2023-05-18T23:37:19.248Z,30.75
2023-05-18T23:39:51.601Z,29.75
2023-05-18T23:42:25.889Z,26.75
2023-05-18T23:44:54.753Z,28.75
2023-05-18T23:47:23.414Z,27.75
2023-05-18T23:49:52.080Z,27.25
2023-05-18T23:52:25.576Z,28.50
2023-05-18T23:54:56.709Z,28.00
2023-05-18T23:57:25.650Z,29.00
2023-05-18T23:59:54.602Z,31.50
